createdAt,value
2019-04-14T00:00:55.373Z,0.00
2019-04-14T00:01:54.788Z,0.00
2019-04-14T00:02:55.490Z,0.00
2019-04-14T00:03:54.737Z,0.00
2019-04-14T00:04:55.080Z,0.00
2019-04-14T00:05:54.689Z,0.00
2019-04-14T00:06:54.822Z,0.00
2019-04-14T00:07:55.915Z,0.00
2019-04-14T00:08:54.610Z,0.00
2019-04-14T00:09:54.588Z,0.00
2019-04-14T00:10:55.071Z,0.00
2019-04-14T00:11:54.874Z,0.00
2019-04-14T00:12:55.554Z,0.00
2019-04-14T00:13:54.610Z,0.00
2019-04-14T00:14:55.406Z,0.00
2019-04-14T00:15:55.020Z,0.00
2019-04-14T00:16:55.320Z,0.00
2019-04-14T00:17:54.613Z,0.00
2019-04-14T00:18:55.452Z,0.00
2019-04-14T00:19:54.467Z,0.00
2019-04-14T00:20:55.518Z,0.00
2019-04-14T00:21:54.482Z,0.00
2019-04-14T00:22:55.283Z,0.00
2019-04-14T00:23:54.479Z,0.00
2019-04-14T00:24:55.372Z,0.00
2019-04-14T00:25:54.451Z,0.00
2019-04-14T00:26:55.211Z,0.00
2019-04-14T00:27:54.407Z,0.00
2019-04-14T00:28:54.122Z,0.00
2019-04-14T00:29:54.560Z,0.00
2019-04-14T00:30:54.075Z,0.00
2019-04-14T00:31:55.350Z,0.00
2019-04-14T00:32:55.146Z,0.00
2019-04-14T00:33:54.290Z,0.00
2019-04-14T00:34:54.983Z,0.00
2019-04-14T00:35:53.998Z,0.00
2019-04-14T00:36:54.501Z,0.00
2019-04-14T00:37:53.898Z,0.00
2019-04-14T00:38:54.272Z,0.00
2019-04-14T00:39:53.872Z,0.00
2019-04-14T00:40:54.050Z,0.00
2019-04-14T00:41:58.221Z,0.00
2019-04-14T00:42:53.891Z,0.00
2019-04-14T00:43:54.862Z,0.00
2019-04-14T00:44:53.858Z,0.00
2019-04-14T00:45:56.752Z,0.00
2019-04-14T00:46:53.892Z,0.00
2019-04-14T00:48:01.190Z,0.00
2019-04-14T00:48:53.948Z,0.00
2019-04-14T00:49:53.612Z,0.00
2019-04-14T00:50:53.937Z,0.00
2019-04-14T00:51:54.701Z,0.00
2019-04-14T00:52:54.512Z,0.00
2019-04-14T00:53:53.647Z,0.00
2019-04-14T00:54:54.339Z,0.00
2019-04-14T00:55:53.461Z,0.00
2019-04-14T00:56:54.152Z,0.00
2019-04-14T00:57:53.436Z,0.00
2019-04-14T00:58:53.935Z,0.00
2019-04-14T00:59:53.361Z,0.00
2019-04-14T01:00:53.787Z,0.00
2019-04-14T01:01:53.320Z,0.00
2019-04-14T01:02:53.699Z,0.00
2019-04-14T01:03:53.271Z,0.00
2019-04-14T01:04:53.454Z,0.00
2019-04-14T01:05:53.214Z,0.00
2019-04-14T01:06:53.377Z,0.00
2019-04-14T01:07:54.350Z,0.00
2019-04-14T01:08:53.410Z,0.00
2019-04-14T01:09:53.219Z,0.00
2019-04-14T01:10:54.037Z,0.00
2019-04-14T01:11:53.166Z,0.00
2019-04-14T01:12:53.930Z,0.00
2019-04-14T01:13:53.067Z,0.00
2019-04-14T01:14:53.890Z,0.00
2019-04-14T01:16:00.555Z,0.00
2019-04-14T01:16:53.845Z,0.00
2019-04-14T01:17:52.992Z,0.00
2019-04-14T01:18:53.738Z,0.00
2019-04-14T01:19:52.880Z,0.00
2019-04-14T01:20:53.631Z,0.00
2019-04-14T01:21:52.835Z,0.00
2019-04-14T01:22:53.172Z,0.00
2019-04-14T01:23:52.778Z,0.00
2019-04-14T01:24:53.270Z,0.00
2019-04-14T01:25:52.728Z,0.00
2019-04-14T01:26:52.920Z,0.00
2019-04-14T01:27:53.747Z,0.00
2019-04-14T01:28:52.693Z,0.00
2019-04-14T01:29:53.721Z,0.00
2019-04-14T01:30:52.610Z,0.00
2019-04-14T01:31:53.609Z,0.00
2019-04-14T01:32:52.562Z,0.00
2019-04-14T01:33:53.385Z,0.00
2019-04-14T01:34:53.924Z,0.00
2019-04-14T01:35:53.134Z,0.00
2019-04-14T01:36:52.456Z,0.00
2019-04-14T01:37:52.908Z,0.00
2019-04-14T01:38:53.511Z,0.00
2019-04-14T01:39:52.538Z,0.00
2019-04-14T01:40:53.142Z,0.00
2019-04-14T01:41:52.344Z,0.00
2019-04-14T01:42:52.758Z,0.00
2019-04-14T01:43:52.277Z,0.00
2019-04-14T01:44:52.545Z,0.00
2019-04-14T01:46:03.448Z,0.00
2019-04-14T01:46:52.216Z,0.00
2019-04-14T01:47:53.346Z,0.00
2019-04-14T01:48:52.165Z,0.00
2019-04-14T01:49:53.045Z,0.00
2019-04-14T01:50:52.121Z,0.00
2019-04-14T01:51:52.820Z,0.00
2019-04-14T01:52:52.281Z,0.00
2019-04-14T01:53:53.140Z,0.00
2019-04-14T01:54:52.022Z,0.00
2019-04-14T01:55:52.697Z,0.00
2019-04-14T01:56:51.968Z,0.00
2019-04-14T01:57:52.498Z,0.00
2019-04-14T01:58:51.911Z,0.00
2019-04-14T01:59:52.520Z,0.00
2019-04-14T02:00:52.987Z,0.00
2019-04-14T02:01:52.110Z,0.00
2019-04-14T02:02:52.951Z,0.00
2019-04-14T02:03:52.063Z,0.00
2019-04-14T02:04:52.823Z,0.00
2019-04-14T02:05:51.847Z,0.00
2019-04-14T02:06:52.735Z,0.00
2019-04-14T02:07:51.702Z,0.00
2019-04-14T02:08:52.213Z,0.00
2019-04-14T02:09:51.655Z,0.00
2019-04-14T02:10:52.071Z,0.00
2019-04-14T02:11:51.603Z,0.00
2019-04-14T02:12:51.874Z,0.00
2019-04-14T02:13:52.793Z,0.00
2019-04-14T02:14:51.707Z,0.00
2019-04-14T02:15:52.747Z,0.00
2019-04-14T02:16:56.099Z,0.00
2019-04-14T02:17:52.434Z,0.00
2019-04-14T02:18:53.416Z,0.00
2019-04-14T02:19:52.409Z,0.00
2019-04-14T02:20:51.380Z,0.00
2019-04-14T02:21:52.013Z,0.00
2019-04-14T02:22:51.333Z,0.00
2019-04-14T02:23:51.865Z,0.00
2019-04-14T02:24:52.688Z,0.00
2019-04-14T02:25:51.491Z,0.00
2019-04-14T02:26:52.515Z,0.00
2019-04-14T02:27:51.492Z,0.00
2019-04-14T02:28:51.191Z,0.00
2019-04-14T02:29:51.649Z,0.00
2019-04-14T02:31:00.206Z,0.00
2019-04-14T02:32:20.870Z,0.00
2019-04-14T02:34:26.021Z,0.00
2019-04-14T02:35:20.609Z,0.00
2019-04-14T02:36:21.862Z,0.00
2019-04-14T02:38:29.554Z,0.00
2019-04-14T02:39:22.331Z,0.00
2019-04-14T02:40:21.703Z,0.00
2019-04-14T02:41:25.042Z,0.00
2019-04-14T02:42:28.287Z,0.00
2019-04-14T02:43:23.808Z,0.00
2019-04-14T02:45:19.309Z,0.00
2019-04-14T02:46:22.077Z,0.00
2019-04-14T02:47:36.674Z,0.00
2019-04-14T02:48:29.090Z,0.00
2019-04-14T02:49:12.437Z,0.00
2019-04-14T02:50:14.225Z,0.00
2019-04-14T02:51:20.817Z,0.00
2019-04-14T02:55:40.987Z,0.00
2019-04-14T02:56:30.961Z,0.00
2019-04-14T02:57:20.798Z,0.00
2019-04-14T02:58:18.270Z,0.00
2019-04-14T02:59:13.284Z,0.00
2019-04-14T03:00:25.318Z,0.00
2019-04-14T03:01:31.733Z,0.00
2019-04-14T03:03:27.798Z,0.00
2019-04-14T03:04:21.625Z,0.00
2019-04-14T03:06:14.576Z,0.00
2019-04-14T03:07:23.163Z,0.00
2019-04-14T03:08:22.258Z,0.00
2019-04-14T03:09:23.918Z,0.00
2019-04-14T03:10:20.383Z,0.00
2019-04-14T03:11:20.772Z,0.00
2019-04-14T03:12:19.078Z,0.00
2019-04-14T03:14:15.547Z,0.00
2019-04-14T03:15:16.910Z,0.00
2019-04-14T03:17:24.785Z,0.00
2019-04-14T03:19:13.922Z,0.00
2019-04-14T03:20:20.084Z,0.00
2019-04-14T03:21:19.789Z,0.00
2019-04-14T03:23:17.278Z,0.00
2019-04-14T03:25:08.133Z,0.00
2019-04-14T03:26:15.557Z,0.00
2019-04-14T03:27:15.275Z,0.00
2019-04-14T03:28:17.583Z,0.00
2019-04-14T03:29:19.542Z,0.00
2019-04-14T03:30:33.994Z,0.00
2019-04-14T03:31:49.563Z,0.00
2019-04-14T03:32:40.125Z,0.00
2019-04-14T03:33:32.064Z,0.00
2019-04-14T03:34:34.877Z,0.00
2019-04-14T03:38:18.463Z,0.00
2019-04-14T03:39:17.009Z,0.00
2019-04-14T03:40:23.804Z,0.00
2019-04-14T03:42:21.309Z,0.00
2019-04-14T03:43:19.560Z,0.00
2019-04-14T03:44:18.614Z,0.00
2019-04-14T03:45:14.362Z,0.00
2019-04-14T03:46:17.755Z,0.00
2019-04-14T03:47:25.463Z,0.00
2019-04-14T03:49:26.918Z,0.00
2019-04-14T03:50:18.967Z,0.00
2019-04-14T03:52:19.534Z,0.00
2019-04-14T03:53:28.938Z,0.00
2019-04-14T03:54:12.366Z,0.00
2019-04-14T03:55:10.089Z,0.00
2019-04-14T03:55:55.760Z,0.00
2019-04-14T03:56:49.254Z,0.00
2019-04-14T03:57:49.776Z,0.00
2019-04-14T03:58:48.990Z,0.00
2019-04-14T03:59:49.972Z,0.00
2019-04-14T04:00:49.235Z,0.00
2019-04-14T04:01:49.952Z,0.00
2019-04-14T04:02:48.884Z,0.00
2019-04-14T04:03:49.959Z,0.00
2019-04-14T04:04:48.899Z,0.00
2019-04-14T04:05:49.883Z,0.00
2019-04-14T04:06:48.792Z,4.00
2019-04-14T04:07:49.547Z,4.00
2019-04-14T04:08:48.738Z,0.00
2019-04-14T04:09:49.646Z,4.00
2019-04-14T04:10:48.737Z,4.00
2019-04-14T04:11:49.745Z,4.00
2019-04-14T04:12:48.719Z,8.00
2019-04-14T04:13:49.851Z,8.00
2019-04-14T04:14:48.611Z,8.00
2019-04-14T04:15:49.751Z,8.00
2019-04-14T04:16:48.547Z,12.00
2019-04-14T04:17:49.439Z,12.00
2019-04-14T04:18:58.875Z,16.00
2019-04-14T04:19:49.159Z,20.00
2019-04-14T04:20:48.447Z,24.00
2019-04-14T04:21:48.816Z,28.00
2019-04-14T04:22:48.392Z,32.00
2019-04-14T04:23:48.945Z,40.00
2019-04-14T04:24:48.352Z,40.00
2019-04-14T04:25:48.650Z,44.00
2019-04-14T04:26:48.294Z,48.00
2019-04-14T04:27:48.374Z,52.00
2019-04-14T04:28:48.250Z,60.00
2019-04-14T04:29:48.421Z,64.00
2019-04-14T04:30:49.364Z,76.00
2019-04-14T04:31:48.341Z,84.00
2019-04-14T04:32:49.284Z,100.00
2019-04-14T04:33:48.123Z,112.00
2019-04-14T04:34:49.086Z,132.00
2019-04-14T04:35:48.075Z,152.00
2019-04-14T04:36:48.754Z,176.00
2019-04-14T04:37:48.030Z,196.00
2019-04-14T04:38:48.777Z,216.00
2019-04-14T04:39:47.982Z,228.00
2019-04-14T04:40:48.588Z,244.00
2019-04-14T04:41:47.928Z,252.00
2019-04-14T04:42:48.371Z,276.00
2019-04-14T04:43:47.895Z,300.00
2019-04-14T04:44:48.777Z,324.00
2019-04-14T04:45:47.827Z,348.00
2019-04-14T04:46:48.403Z,376.00
2019-04-14T04:47:49.099Z,416.00
2019-04-14T04:49:00.045Z,464.00
2019-04-14T04:49:48.922Z,504.00
2019-04-14T04:50:47.786Z,532.00
2019-04-14T04:51:48.651Z,568.00
2019-04-14T04:52:47.657Z,604.00
2019-04-14T04:53:48.341Z,632.00
2019-04-14T04:54:47.614Z,664.00
2019-04-14T04:55:48.101Z,688.00
2019-04-14T04:56:47.558Z,756.00
2019-04-14T04:57:48.163Z,812.00
2019-04-14T04:58:48.053Z,860.00
2019-04-14T04:59:47.496Z,916.00
2019-04-14T05:00:51.007Z,972.00
2019-04-14T05:01:47.447Z,1012.00
2019-04-14T05:02:48.460Z,1056.00
2019-04-14T05:03:47.397Z,1108.00
2019-04-14T05:04:48.366Z,1164.00
2019-04-14T05:05:47.351Z,1216.00
2019-04-14T05:06:48.320Z,1288.00
2019-04-14T05:07:47.294Z,1376.00
2019-04-14T05:08:48.073Z,1488.00
2019-04-14T05:09:47.246Z,1596.00
2019-04-14T05:10:48.125Z,1736.00
2019-04-14T05:11:47.202Z,1872.00
2019-04-14T05:12:47.972Z,2024.00
2019-04-14T05:13:47.146Z,2152.00
2019-04-14T05:14:47.969Z,2288.00
2019-04-14T05:15:47.102Z,2396.00
2019-04-14T05:16:47.077Z,2520.00
2019-04-14T05:17:47.379Z,2688.00
2019-04-14T05:18:47.020Z,2884.00
2019-04-14T05:19:47.551Z,3040.00
2019-04-14T05:20:46.972Z,3216.00
2019-04-14T05:21:47.415Z,3344.00
2019-04-14T05:22:46.930Z,3476.00
2019-04-14T05:23:47.400Z,3604.00
2019-04-14T05:24:46.874Z,3760.00
2019-04-14T05:25:47.386Z,3940.00
2019-04-14T05:26:46.846Z,4096.00
2019-04-14T05:27:47.358Z,4264.00
2019-04-14T05:28:46.782Z,4468.00
2019-04-14T05:29:47.227Z,4692.00
2019-04-14T05:30:46.728Z,4960.00
2019-04-14T05:31:46.859Z,5192.00
2019-04-14T05:32:47.724Z,5368.00
2019-04-14T05:33:46.910Z,5472.00
2019-04-14T05:34:47.829Z,5524.00
2019-04-14T05:35:46.718Z,5564.00
2019-04-14T05:36:47.631Z,5580.00
2019-04-14T05:37:46.568Z,5604.00
2019-04-14T05:38:47.437Z,5584.00
2019-04-14T05:39:46.510Z,5540.00
2019-04-14T05:40:47.503Z,5488.00
2019-04-14T05:41:57.061Z,5412.00
2019-04-14T05:42:47.318Z,5292.00
2019-04-14T05:43:52.027Z,5228.00
2019-04-14T05:44:47.122Z,5204.00
2019-04-14T05:45:46.372Z,5236.00
2019-04-14T05:46:47.002Z,5348.00
2019-04-14T05:47:46.320Z,5456.00
2019-04-14T05:48:47.116Z,5452.00
2019-04-14T05:49:50.067Z,5456.00
2019-04-14T05:50:46.875Z,5576.00
2019-04-14T05:51:46.231Z,5748.00
2019-04-14T05:52:47.134Z,5968.00
2019-04-14T05:53:46.178Z,6148.00
2019-04-14T05:54:47.106Z,6132.00
2019-04-14T05:55:46.168Z,6260.00
2019-04-14T05:56:47.063Z,6396.00
2019-04-14T05:57:46.087Z,6832.00
2019-04-14T05:58:47.084Z,7252.00
2019-04-14T05:59:46.250Z,7432.00
2019-04-14T06:00:46.379Z,7780.00
2019-04-14T06:01:46.529Z,7520.00
2019-04-14T06:02:46.316Z,7952.00
2019-04-14T06:03:45.940Z,8156.00
2019-04-14T06:04:46.129Z,8004.00
2019-04-14T06:05:45.897Z,8188.00
2019-04-14T06:06:45.866Z,8300.00
2019-04-14T06:07:45.853Z,8020.00
2019-04-14T06:08:45.828Z,7968.00
2019-04-14T06:09:45.795Z,7928.00
2019-04-14T06:10:45.773Z,7732.00
2019-04-14T06:11:45.749Z,7896.00
2019-04-14T06:12:45.726Z,8352.00
2019-04-14T06:13:45.711Z,8884.00
2019-04-14T06:14:45.682Z,9132.00
2019-04-14T06:15:45.653Z,9348.00
2019-04-14T06:16:45.631Z,9632.00
2019-04-14T06:17:45.605Z,10060.00
2019-04-14T06:18:45.621Z,10348.00
2019-04-14T06:19:45.561Z,10448.00
2019-04-14T06:20:45.543Z,10736.00
2019-04-14T06:21:45.511Z,10896.00
2019-04-14T06:22:45.489Z,10856.00
2019-04-14T06:23:45.492Z,10792.00
2019-04-14T06:24:45.443Z,10668.00
2019-04-14T06:25:45.431Z,11032.00
2019-04-14T06:26:45.402Z,11288.00
2019-04-14T06:27:45.382Z,11316.00
2019-04-14T06:28:45.362Z,11524.00
2019-04-14T06:29:45.329Z,12108.00
2019-04-14T06:30:45.310Z,12524.00
2019-04-14T06:31:45.283Z,13092.00
2019-04-14T06:32:45.268Z,12760.00
2019-04-14T06:33:45.236Z,12820.00
2019-04-14T06:34:45.220Z,12808.00
2019-04-14T06:35:45.199Z,12916.00
2019-04-14T06:36:45.172Z,12884.00
2019-04-14T06:37:45.153Z,12980.00
2019-04-14T06:38:45.138Z,12780.00
2019-04-14T06:39:45.105Z,12456.00
2019-04-14T06:40:45.083Z,12296.00
2019-04-14T06:41:45.054Z,12216.00
2019-04-14T06:42:45.043Z,12128.00
2019-04-14T06:43:49.043Z,12108.00
2019-04-14T06:44:44.992Z,12064.00
2019-04-14T06:45:44.967Z,11848.00
2019-04-14T06:46:44.943Z,11500.00
2019-04-14T06:47:44.922Z,11196.00
2019-04-14T06:48:44.901Z,11044.00
2019-04-14T06:49:49.255Z,10748.00
2019-04-14T06:50:46.462Z,10372.00
2019-04-14T06:51:44.831Z,9848.00
2019-04-14T06:52:44.810Z,9528.00
2019-04-14T06:53:44.786Z,9216.00
2019-04-14T06:54:44.767Z,9020.00
2019-04-14T06:55:44.745Z,8796.00
2019-04-14T06:56:44.725Z,8808.00
2019-04-14T06:57:44.701Z,8968.00
2019-04-14T06:58:44.672Z,9092.00
2019-04-14T06:59:44.659Z,9308.00
2019-04-14T07:00:44.627Z,9460.00
2019-04-14T07:01:44.612Z,9696.00
2019-04-14T07:02:45.561Z,10040.00
2019-04-14T07:03:44.566Z,10568.00
2019-04-14T07:04:44.539Z,10780.00
2019-04-14T07:05:44.526Z,11120.00
2019-04-14T07:06:44.491Z,11632.00
2019-04-14T07:07:56.149Z,12320.00
2019-04-14T07:08:44.456Z,12980.00
2019-04-14T07:09:44.449Z,13660.00
2019-04-14T07:10:44.402Z,14352.00
2019-04-14T07:11:44.383Z,14980.00
2019-04-14T07:12:44.357Z,16060.00
2019-04-14T07:13:48.032Z,16440.00
2019-04-14T07:14:44.321Z,16068.00
2019-04-14T07:15:44.297Z,16420.00
2019-04-14T07:16:44.290Z,16624.00
2019-04-14T07:17:44.244Z,17072.00
2019-04-14T07:18:44.230Z,17428.00
2019-04-14T07:19:44.259Z,17320.00
2019-04-14T07:20:44.179Z,17356.00
2019-04-14T07:21:44.166Z,17528.00
2019-04-14T07:22:44.140Z,17388.00
2019-04-14T07:23:44.111Z,17084.00
2019-04-14T07:24:44.088Z,16432.00
2019-04-14T07:25:44.066Z,16220.00
2019-04-14T07:26:44.059Z,16412.00
2019-04-14T07:27:44.026Z,16532.00
2019-04-14T07:28:55.980Z,16712.00
2019-04-14T07:29:43.989Z,16864.00
2019-04-14T07:30:43.964Z,17408.00
2019-04-14T07:31:43.940Z,17768.00
2019-04-14T07:32:43.918Z,18528.00
2019-04-14T07:33:43.895Z,18784.00
2019-04-14T07:34:43.882Z,18496.00
2019-04-14T07:35:43.854Z,18160.00
2019-04-14T07:36:43.838Z,18216.00
2019-04-14T07:37:43.819Z,18008.00
2019-04-14T07:38:43.801Z,17644.00
2019-04-14T07:39:43.774Z,17412.00
2019-04-14T07:40:43.751Z,17336.00
2019-04-14T07:41:43.734Z,17172.00
2019-04-14T07:42:43.709Z,16724.00
2019-04-14T07:43:43.699Z,16268.00
2019-04-14T07:44:43.700Z,16184.00
2019-04-14T07:45:43.668Z,16228.00
2019-04-14T07:46:43.645Z,16332.00
2019-04-14T07:47:43.610Z,16260.00
2019-04-14T07:48:43.594Z,15632.00
2019-04-14T07:49:43.566Z,16280.00
2019-04-14T07:50:43.546Z,16308.00
2019-04-14T07:51:43.527Z,16352.00
2019-04-14T07:52:43.514Z,16360.00
2019-04-14T07:53:43.491Z,16424.00
2019-04-14T07:54:43.468Z,16332.00
2019-04-14T07:55:43.447Z,15928.00
2019-04-14T07:56:43.428Z,15420.00
2019-04-14T07:57:43.415Z,15432.00
2019-04-14T07:58:43.386Z,15404.00
2019-04-14T07:59:43.417Z,15368.00
2019-04-14T08:00:43.370Z,15324.00
2019-04-14T08:01:43.329Z,15360.00
2019-04-14T08:02:43.312Z,15184.00
2019-04-14T08:03:43.303Z,14448.00
2019-04-14T08:04:43.267Z,14340.00
2019-04-14T08:05:43.244Z,15408.00
2019-04-14T08:06:43.232Z,16084.00
2019-04-14T08:07:43.216Z,16544.00
2019-04-14T08:08:43.191Z,17016.00
2019-04-14T08:09:43.171Z,16460.00
2019-04-14T08:10:43.147Z,16312.00
2019-04-14T08:11:43.128Z,16216.00
2019-04-14T08:12:43.113Z,15840.00
2019-04-14T08:13:43.091Z,14916.00
2019-04-14T08:14:43.071Z,15128.00
2019-04-14T08:15:43.048Z,16996.00
2019-04-14T08:16:43.044Z,18816.00
2019-04-14T08:17:43.715Z,18032.00
2019-04-14T08:18:42.987Z,16980.00
2019-04-14T08:19:42.971Z,15844.00
2019-04-14T08:20:42.969Z,15860.00
2019-04-14T08:21:42.931Z,16284.00
2019-04-14T08:22:42.915Z,16280.00
2019-04-14T08:23:42.898Z,16748.00
2019-04-14T08:24:42.927Z,17728.00
2019-04-14T08:25:42.854Z,17016.00
2019-04-14T08:26:42.837Z,17356.00
2019-04-14T08:27:42.825Z,17456.00
2019-04-14T08:28:42.789Z,16296.00
2019-04-14T08:29:42.786Z,15792.00
2019-04-14T08:30:42.751Z,14700.00
2019-04-14T08:31:42.732Z,14560.00
2019-04-14T08:32:42.715Z,15672.00
2019-04-14T08:33:42.693Z,17360.00
2019-04-14T08:34:42.677Z,20512.00
2019-04-14T08:35:42.664Z,20448.00
2019-04-14T08:36:42.636Z,19712.00
2019-04-14T08:37:42.611Z,19232.00
2019-04-14T08:38:42.594Z,18976.00
2019-04-14T08:39:42.578Z,19520.00
2019-04-14T08:40:42.550Z,20224.00
2019-04-14T08:41:42.531Z,19648.00
2019-04-14T08:42:42.534Z,20032.00
2019-04-14T08:43:42.498Z,20608.00
2019-04-14T08:44:42.476Z,20544.00
2019-04-14T08:45:42.451Z,19904.00
2019-04-14T08:46:42.428Z,19136.00
2019-04-14T08:47:42.410Z,17760.00
2019-04-14T08:48:42.417Z,17408.00
2019-04-14T08:49:42.375Z,17832.00
2019-04-14T08:50:42.351Z,17820.00
2019-04-14T08:51:42.337Z,18136.00
2019-04-14T08:52:42.307Z,19424.00
2019-04-14T08:53:42.337Z,19552.00
2019-04-14T08:54:42.282Z,20384.00
2019-04-14T08:55:42.246Z,20960.00
2019-04-14T08:56:42.228Z,23808.00
2019-04-14T08:57:42.208Z,23648.00
2019-04-14T08:58:42.189Z,22560.00
2019-04-14T08:59:42.164Z,27680.00
2019-04-14T09:00:42.151Z,38720.00
2019-04-14T09:01:42.134Z,40928.00
2019-04-14T09:02:42.101Z,36576.00
2019-04-14T09:03:42.085Z,32160.00
2019-04-14T09:04:42.067Z,32256.00
2019-04-14T09:05:42.044Z,33440.00
2019-04-14T09:06:42.025Z,32576.00
2019-04-14T09:07:42.006Z,44288.00
2019-04-14T09:08:41.983Z,37152.00
2019-04-14T09:09:41.996Z,34336.00
2019-04-14T09:10:41.950Z,34272.00
2019-04-14T09:11:41.923Z,33024.00
2019-04-14T09:12:41.911Z,41760.00
2019-04-14T09:13:41.919Z,42848.00
2019-04-14T09:14:41.869Z,39648.00
2019-04-14T09:15:41.850Z,45888.00
2019-04-14T09:16:41.828Z,38464.00
2019-04-14T09:17:41.813Z,43616.00
2019-04-14T09:18:41.794Z,53920.00
2019-04-14T09:19:41.786Z,49120.00
2019-04-14T09:20:51.687Z,61184.00
2019-04-14T09:21:41.724Z,71200.00
2019-04-14T09:22:41.705Z,55680.00
2019-04-14T09:23:41.693Z,43776.00
2019-04-14T09:24:41.670Z,57632.00
2019-04-14T09:25:51.628Z,63136.00
2019-04-14T09:26:51.593Z,59232.00
2019-04-14T09:27:51.574Z,75872.00
2019-04-14T09:28:51.554Z,77792.00
2019-04-14T09:29:52.451Z,77248.00
2019-04-14T09:30:51.517Z,74400.00
2019-04-14T09:31:51.505Z,76704.00
2019-04-14T09:32:51.485Z,79104.00
2019-04-14T09:33:51.463Z,78688.00
2019-04-14T09:34:51.440Z,76672.00
2019-04-14T09:35:51.418Z,76992.00
2019-04-14T09:36:51.458Z,77792.00
2019-04-14T09:37:51.384Z,75232.00
2019-04-14T09:38:51.364Z,76448.00
2019-04-14T09:39:51.344Z,75456.00
2019-04-14T09:40:51.326Z,80032.00
2019-04-14T09:41:51.315Z,79808.00
2019-04-14T09:42:51.292Z,77376.00
2019-04-14T09:43:51.293Z,76224.00
2019-04-14T09:44:51.254Z,78304.00
2019-04-14T09:45:51.235Z,80704.00
2019-04-14T09:46:51.215Z,79552.00
2019-04-14T09:47:51.203Z,74848.00
2019-04-14T09:48:51.184Z,69376.00
2019-04-14T09:49:51.168Z,61504.00
2019-04-14T09:50:51.150Z,59872.00
2019-04-14T09:51:51.128Z,62144.00
2019-04-14T09:52:51.134Z,64224.00
2019-04-14T09:53:51.097Z,73536.00
2019-04-14T09:54:51.082Z,86752.00
2019-04-14T09:55:51.061Z,90688.00
2019-04-14T09:56:51.054Z,78368.00
2019-04-14T09:57:51.026Z,72864.00
2019-04-14T09:58:51.010Z,67520.00
2019-04-14T09:59:50.997Z,68576.00
2019-04-14T10:00:50.974Z,65344.00
2019-04-14T10:01:50.958Z,72576.00
2019-04-14T10:02:50.950Z,80000.00
2019-04-14T10:03:50.929Z,77088.00
2019-04-14T10:04:50.910Z,76128.00
2019-04-14T10:05:50.891Z,78528.00
2019-04-14T10:06:51.135Z,76192.00
2019-04-14T10:07:50.865Z,77024.00
2019-04-14T10:08:50.847Z,79200.00
2019-04-14T10:09:50.830Z,82688.00
2019-04-14T10:10:50.881Z,67872.00
2019-04-14T10:11:53.677Z,59872.00
2019-04-14T10:12:50.796Z,58464.00
2019-04-14T10:13:50.776Z,68448.00
2019-04-14T10:14:50.753Z,71296.00
2019-04-14T10:15:50.758Z,86976.00
2019-04-14T10:16:50.740Z,81632.00
2019-04-14T10:17:50.716Z,79712.00
2019-04-14T10:18:50.696Z,81632.00
2019-04-14T10:19:50.679Z,82496.00
2019-04-14T10:20:50.677Z,80832.00
2019-04-14T10:21:50.651Z,79616.00
2019-04-14T10:22:50.638Z,81088.00
2019-04-14T10:23:50.628Z,83264.00
2019-04-14T10:24:50.609Z,83776.00
2019-04-14T10:25:50.618Z,84864.00
2019-04-14T10:26:50.625Z,85792.00
2019-04-14T10:27:50.590Z,70784.00
2019-04-14T10:28:50.880Z,85664.00
2019-04-14T10:29:50.565Z,82880.00
2019-04-14T10:30:50.548Z,82944.00
2019-04-14T10:31:50.525Z,83360.00
2019-04-14T10:32:50.511Z,83488.00
2019-04-14T10:33:50.497Z,84224.00
2019-04-14T10:34:50.493Z,82336.00
2019-04-14T10:35:50.491Z,80160.00
2019-04-14T10:36:50.526Z,79136.00
2019-04-14T10:37:50.447Z,82976.00
2019-04-14T10:38:50.437Z,85696.00
2019-04-14T10:39:50.429Z,88096.00
2019-04-14T10:40:50.407Z,86784.00
2019-04-14T10:41:50.397Z,88576.00
2019-04-14T10:42:50.411Z,89248.00
2019-04-14T10:43:50.374Z,89760.00
2019-04-14T10:44:50.373Z,88608.00
2019-04-14T10:45:50.345Z,89888.00
2019-04-14T10:46:50.332Z,90752.00
2019-04-14T10:47:50.329Z,92320.00
2019-04-14T10:48:50.309Z,90688.00
2019-04-14T10:49:50.309Z,89696.00
2019-04-14T10:50:50.290Z,85504.00
2019-04-14T10:51:50.314Z,84480.00
2019-04-14T10:52:50.269Z,87296.00
2019-04-14T10:53:50.255Z,90944.00
2019-04-14T10:54:50.258Z,92224.00
2019-04-14T10:55:50.236Z,88768.00
2019-04-14T10:56:50.251Z,94496.00
2019-04-14T10:57:50.214Z,47168.00
2019-04-14T10:58:50.220Z,92768.00
2019-04-14T10:59:50.200Z,94944.00
2019-04-14T11:00:50.184Z,94560.00
2019-04-14T11:01:50.175Z,93024.00
2019-04-14T11:02:50.172Z,84992.00
2019-04-14T11:03:50.169Z,87456.00
2019-04-14T11:04:50.147Z,94080.00
2019-04-14T11:05:50.143Z,95840.00
2019-04-14T11:06:50.140Z,98528.00
2019-04-14T11:07:50.118Z,98048.00
2019-04-14T11:08:50.112Z,99104.00
2019-04-14T11:09:50.106Z,94656.00
2019-04-14T11:10:50.144Z,94848.00
2019-04-14T11:11:50.076Z,91488.00
2019-04-14T11:12:50.076Z,88256.00
2019-04-14T11:13:50.081Z,55776.00
2019-04-14T11:14:50.051Z,88288.00
2019-04-14T11:15:50.054Z,86176.00
2019-04-14T11:16:50.036Z,88512.00
2019-04-14T11:17:50.025Z,89088.00
2019-04-14T11:18:50.035Z,87328.00
2019-04-14T11:19:50.012Z,85504.00
2019-04-14T11:20:50.002Z,87200.00
2019-04-14T11:21:49.996Z,81728.00
2019-04-14T11:23:02.483Z,77440.00
2019-04-14T11:23:49.993Z,89888.00
2019-04-14T11:24:49.974Z,90624.00
2019-04-14T11:25:49.968Z,82176.00
2019-04-14T11:26:49.964Z,86624.00
2019-04-14T11:27:49.954Z,82848.00
2019-04-14T11:28:49.943Z,82528.00
2019-04-14T11:29:53.844Z,81536.00
2019-04-14T11:30:49.926Z,86112.00
2019-04-14T11:31:49.940Z,83712.00
2019-04-14T11:32:49.924Z,82432.00
2019-04-14T11:33:49.907Z,78592.00
2019-04-14T11:34:49.890Z,81856.00
2019-04-14T11:35:49.880Z,86272.00
2019-04-14T11:36:49.872Z,86208.00
2019-04-14T11:37:49.887Z,87680.00
2019-04-14T11:38:49.873Z,90816.00
2019-04-14T11:39:49.856Z,91296.00
2019-04-14T11:40:49.843Z,88160.00
2019-04-14T11:41:49.850Z,87424.00
2019-04-14T11:42:52.622Z,83744.00
2019-04-14T11:43:49.825Z,91616.00
2019-04-14T11:44:49.829Z,82528.00
2019-04-14T11:45:49.830Z,68128.00
2019-04-14T11:46:49.808Z,94208.00
2019-04-14T11:47:49.814Z,91232.00
2019-04-14T11:48:49.802Z,80672.00
2019-04-14T11:49:49.789Z,88192.00
2019-04-14T11:50:49.852Z,87168.00
2019-04-14T11:51:55.575Z,78656.00
2019-04-14T11:52:49.782Z,75392.00
2019-04-14T11:53:49.776Z,79328.00
2019-04-14T11:54:49.756Z,82752.00
2019-04-14T11:55:49.757Z,80608.00
2019-04-14T11:56:49.746Z,80608.00
2019-04-14T11:57:49.746Z,83744.00
2019-04-14T11:58:50.226Z,84000.00
2019-04-14T11:59:49.731Z,83168.00
2019-04-14T12:00:49.720Z,85440.00
2019-04-14T12:01:49.717Z,86656.00
2019-04-14T12:02:49.716Z,87104.00
2019-04-14T12:03:49.703Z,84640.00
2019-04-14T12:04:49.693Z,85664.00
2019-04-14T12:05:49.689Z,89952.00
2019-04-14T12:06:49.680Z,87968.00
2019-04-14T12:07:49.684Z,86784.00
2019-04-14T12:08:49.665Z,91552.00
2019-04-14T12:09:49.659Z,80288.00
2019-04-14T12:10:49.655Z,22880.00
2019-04-14T12:11:49.658Z,58016.00
2019-04-14T12:12:49.643Z,42528.00
2019-04-14T12:13:49.639Z,40416.00
2019-04-14T12:14:49.636Z,40384.00
2019-04-14T12:15:49.652Z,41216.00
2019-04-14T12:16:49.635Z,40672.00
2019-04-14T12:17:49.616Z,40576.00
2019-04-14T12:18:49.608Z,41568.00
2019-04-14T12:19:49.599Z,41152.00
2019-04-14T12:20:49.594Z,39744.00
2019-04-14T12:21:49.595Z,24416.00
2019-04-14T12:22:49.588Z,21856.00
2019-04-14T12:23:49.575Z,20736.00
2019-04-14T12:24:49.575Z,20800.00
2019-04-14T12:25:49.569Z,19168.00
2019-04-14T12:26:49.553Z,18336.00
2019-04-14T12:27:49.555Z,18816.00
2019-04-14T12:28:49.538Z,20896.00
2019-04-14T12:29:50.063Z,21344.00
2019-04-14T12:30:49.534Z,22272.00
2019-04-14T12:31:49.896Z,23488.00
2019-04-14T12:32:49.515Z,25856.00
2019-04-14T12:33:49.508Z,30912.00
2019-04-14T12:34:49.483Z,42752.00
2019-04-14T12:35:49.476Z,44064.00
2019-04-14T12:36:49.492Z,44192.00